Time;durP1;ratioP1;P1;durP2;ratioP2;P2;SDS_P1;SDS_P2;PMS_P1;PMS_P2;Temp;Humidity;BMP_temperature;BMP_pressure;BME280_temperature;BME280_humidity;BME280_pressure;Samples;Min_cycle;Max_cycle;Signal;HPM_P1;HPM_P2
2022/07/23 00:02:20;;;;;;;9.00;4.47;;;;;;;15.87;90.91;101772.00;4895833;29;20036;-71
2022/07/23 00:04:45;;;;;;;8.90;3.80;;;;;;;15.84;91.27;101772.44;4895675;29;20039;-71
2022/07/23 00:07:10;;;;;;;5.68;3.85;;;;;;;15.80;91.03;101769.34;4895755;29;20060;-71
2022/07/23 00:09:36;;;;;;;5.97;3.55;;;;;;;15.77;91.48;101780.50;4895137;29;20600;-71
2022/07/23 00:12:01;;;;;;;7.93;4.40;;;;;;;15.73;91.13;101765.84;4895544;29;20373;-71
2022/07/23 00:14:26;;;;;;;7.90;4.03;;;;;;;15.70;91.48;101777.84;4878520;29;20128;-71
2022/07/23 00:16:51;;;;;;;8.32;3.95;;;;;;;15.70;91.21;101775.16;4895495;29;20040;-68
2022/07/23 00:19:17;;;;;;;6.07;4.07;;;;;;;15.75;91.28;101777.22;4895456;29;20030;-69
2022/07/23 00:21:42;;;;;;;7.50;3.90;;;;;;;15.77;91.06;101780.50;4895498;29;20032;-68
2022/07/23 00:24:07;;;;;;;6.80;3.90;;;;;;;15.74;91.17;101765.59;4895577;29;20033;-69
2022/07/23 00:26:33;;;;;;;8.35;3.85;;;;;;;15.72;91.47;101774.94;4895257;29;20131;-68
2022/07/23 00:28:58;;;;;;;8.88;4.15;;;;;;;15.73;91.67;101779.28;4895271;29;20055;-68
2022/07/23 00:31:24;;;;;;;8.77;4.32;;;;;;;15.74;92.40;101770.97;4895136;29;20028;-68
2022/07/23 00:33:49;;;;;;;7.50;3.85;;;;;;;15.64;92.58;101767.03;4895270;29;20109;-68
2022/07/23 00:36:15;;;;;;;5.57;3.53;;;;;;;15.57;93.50;101761.69;4877502;29;20048;-68
2022/07/23 00:38:40;;;;;;;6.25;4.13;;;;;;;15.50;93.92;101752.78;4894747;29;20116;-68
2022/07/23 00:41:05;;;;;;;4.80;3.78;;;;;;;15.40;93.68;101744.28;4894294;29;20088;-68
2022/07/23 00:43:31;;;;;;;9.90;4.57;;;;;;;15.47;93.88;101755.88;4894970;29;20041;-68
2022/07/23 00:45:56;;;;;;;9.95;4.65;;;;;;;15.47;94.27;101751.31;4895173;29;20032;-68
2022/07/23 00:48:21;;;;;;;7.38;3.83;;;;;;;15.52;94.07;101759.59;4894737;29;20528;-68
2022/07/23 00:50:47;;;;;;;10.38;4.35;;;;;;;15.56;93.82;101765.38;4894861;29;20433;-68
2022/07/23 00:53:13;;;;;;;9.45;4.97;;;;;;;15.53;93.81;101765.81;4894874;29;20096;-67
2022/07/23 00:55:39;;;;;;;9.32;4.90;;;;;;;15.47;93.83;101766.63;4894953;29;20040;-68
2022/07/23 00:58:04;;;;;;;7.53;4.82;;;;;;;15.40;93.76;101761.25;4894606;29;20040;-68
2022/07/23 01:00:30;;;;;;;8.00;4.45;;;;;;;15.36;94.16;101759.19;4894735;29;20036;-68
2022/07/23 01:02:55;;;;;;;6.57;4.22;;;;;;;15.30;94.08;101761.66;4894634;29;20037;-68
2022/07/23 01:05:22;;;;;;;6.55;4.15;;;;;;;15.28;94.06;101762.91;4894545;29;20032;-68
2022/07/23 01:07:49;;;;;;;9.15;5.05;;;;;;;15.25;94.17;101760.63;4894726;29;20033;-68
2022/07/23 01:10:30;;;;;;;5.53;4.57;;;;;;;15.25;94.25;101768.69;4877482;29;20570;-68
2022/07/23 01:12:57;;;;;;;8.65;4.68;;;;;;;15.23;94.44;101768.06;4894704;29;20587;-68
2022/07/23 01:15:22;;;;;;;8.07;4.40;;;;;;;15.16;94.18;101759.16;4894469;29;20602;-68
2022/07/23 01:17:48;;;;;;;7.55;4.30;;;;;;;15.09;94.25;101757.31;4894523;29;20043;-68
2022/07/23 01:20:13;;;;;;;9.18;4.22;;;;;;;15.03;94.51;101749.22;4893779;29;20025;-68
2022/07/23 01:22:38;;;;;;;7.57;4.72;;;;;;;15.04;95.05;101753.56;4894332;29;20127;-68
2022/07/23 01:25:04;;;;;;;10.20;4.70;;;;;;;14.92;95.17;101744.47;4895268;29;20039;-68
2022/07/23 01:27:30;;;;;;;7.82;4.45;;;;;;;14.89;96.01;101751.88;4877647;29;20040;-68
2022/07/23 01:29:57;;;;;;;8.90;4.75;;;;;;;14.85;96.71;101745.25;4894186;29;20048;-68
2022/07/23 01:32:23;;;;;;;8.65;4.45;;;;;;;14.85;96.31;101745.25;4894423;29;20417;-68
2022/07/23 01:34:48;;;;;;;5.93;3.92;;;;;;;14.82;96.67;101745.66;4894287;29;20036;-68
2022/07/23 01:37:13;;;;;;;5.88;4.32;;;;;;;14.81;96.96;101751.25;4893629;29;20032;-68
2022/07/23 01:39:39;;;;;;;6.80;3.72;;;;;;;14.75;97.06;101749.34;4893981;29;20075;-68
2022/07/23 01:42:05;;;;;;;9.23;4.40;;;;;;;14.71;97.25;101751.63;4876936;29;20056;-68
2022/07/23 01:44:30;;;;;;;6.10;4.28;;;;;;;14.69;97.68;101756.38;4893671;29;20477;-69
2022/07/23 01:46:56;;;;;;;6.78;3.35;;;;;;;14.65;97.03;101752.44;4894198;29;20036;-68
2022/07/23 01:49:22;;;;;;;6.90;3.88;;;;;;;14.59;97.34;101743.34;4894158;29;20052;-68
2022/07/23 01:51:59;;;;;;;7.10;4.45;;;;;;;14.60;97.00;101744.16;4894146;29;20068;-68
2022/07/23 01:54:32;;;;;;;7.90;3.60;;;;;;;14.58;97.24;101743.53;4894172;29;20063;-68
2022/07/23 01:56:57;;;;;;;5.75;4.22;;;;;;;14.62;96.93;101747.47;4878354;29;20445;-68
2022/07/23 01:59:23;;;;;;;9.25;4.60;;;;;;;14.57;97.03;101745.38;4893806;29;20123;-68
2022/07/23 02:01:50;;;;;;;11.45;5.70;;;;;;;14.56;97.10;101753.63;4894012;29;20055;-68
2022/07/23 02:04:20;;;;;;;8.55;5.03;;;;;;;14.56;97.20;101745.59;4893979;29;20044;-69
2022/07/23 02:06:45;;;;;;;5.50;3.70;;;;;;;14.50;97.34;101736.44;4893819;29;20044;-68
2022/07/23 02:09:11;;;;;;;8.27;3.88;;;;;;;14.57;97.16;101755.31;4893689;29;20028;-68
2022/07/23 02:11:36;;;;;;;6.07;4.40;;;;;;;14.53;97.34;101738.75;4893785;29;20036;-68
2022/07/23 02:14:02;;;;;;;6.55;4.80;;;;;;;14.55;97.71;101743.94;4877348;29;20400;-68
2022/07/23 02:16:28;;;;;;;8.27;4.57;;;;;;;14.50;97.46;101741.81;4893854;29;20508;-68
2022/07/23 02:18:53;;;;;;;6.90;4.60;;;;;;;14.44;97.93;101745.31;4893957;29;20088;-68
2022/07/23 02:21:18;;;;;;;7.47;4.15;;;;;;;14.38;98.46;101746.09;4877042;29;20112;-68
2022/07/23 02:23:44;;;;;;;8.70;4.03;;;;;;;14.34;98.17;101739.47;4876682;29;20131;-68
2022/07/23 02:26:09;;;;;;;9.13;4.03;;;;;;;14.28;98.14;101743.81;4893725;29;20036;-68
2022/07/23 02:28:34;;;;;;;5.18;3.95;;;;;;;14.25;98.09;101736.13;4893801;29;20036;-68
2022/07/23 02:31:00;;;;;;;5.38;3.63;;;;;;;14.27;98.22;101736.75;4877377;29;20045;-68
2022/07/23 02:33:25;;;;;;;6.25;3.63;;;;;;;14.25;97.90;101734.28;4897396;29;20132;-68
2022/07/23 02:35:50;;;;;;;5.30;4.07;;;;;;;14.26;98.19;101735.13;4896879;29;20101;-68
2022/07/23 02:38:16;;;;;;;8.48;5.18;;;;;;;14.23;98.57;101725.59;4896868;29;20032;-68
2022/07/23 02:40:41;;;;;;;5.95;4.50;;;;;;;14.23;99.01;101735.50;4879991;29;20033;-68
2022/07/23 02:43:06;;;;;;;7.10;4.53;;;;;;;14.20;98.77;101738.56;4897055;29;20100;-68
2022/07/23 02:45:32;;;;;;;7.93;4.53;;;;;;;14.15;98.35;101733.81;4896691;29;20477;-68
2022/07/23 02:47:57;;;;;;;8.32;4.68;;;;;;;14.09;98.00;101731.91;4897130;29;20394;-68
2022/07/23 02:50:22;;;;;;;8.57;4.25;;;;;;;14.07;98.12;101738.50;4880194;29;20037;-68
2022/07/23 02:52:48;;;;;;;6.65;4.40;;;;;;;14.08;98.66;101741.00;4897080;29;20471;-68
2022/07/23 02:55:13;;;;;;;5.95;4.07;;;;;;;14.04;98.55;101742.41;4897068;29;20043;-68
2022/07/23 02:57:39;;;;;;;11.20;5.53;;;;;;;14.01;99.08;101740.94;4880197;29;20037;-68
2022/07/23 03:00:06;;;;;;;8.02;4.45;;;;;;;14.00;98.62;101741.97;4879737;29;20041;-68
2022/07/23 03:02:31;;;;;;;10.27;5.22;;;;;;;14.00;98.53;101746.53;4896936;29;20079;-68
2022/07/23 03:04:57;;;;;;;8.95;4.95;;;;;;;13.96;98.57;101745.25;4896862;29;20458;-68
2022/07/23 03:07:22;;;;;;;8.10;4.85;;;;;;;13.93;98.57;101753.69;4896839;29;20036;-68
2022/07/23 03:09:47;;;;;;;7.40;4.07;;;;;;;13.92;98.84;101744.00;4896457;29;20057;-67
2022/07/23 03:12:13;;;;;;;7.70;4.70;;;;;;;13.94;98.96;101750.00;4896632;29;20477;-68
2022/07/23 03:14:38;;;;;;;9.80;4.60;;;;;;;13.90;98.82;101748.72;4896301;29;20512;-68
2022/07/23 03:17:04;;;;;;;6.35;4.18;;;;;;;13.83;99.03;101756.72;4896496;29;20116;-68
2022/07/23 03:19:29;;;;;;;5.38;3.60;;;;;;;13.82;98.65;101760.44;4896478;29;20029;-68
2022/07/23 03:21:54;;;;;;;5.35;4.18;;;;;;;13.80;98.39;101762.47;4896594;29;20081;-68
2022/07/23 03:24:20;;;;;;;6.95;4.85;;;;;;;13.76;98.57;101758.53;4896498;29;20124;-68
2022/07/23 03:26:45;;;;;;;7.25;4.10;;;;;;;13.73;99.14;101759.75;4896348;29;20040;-68
2022/07/23 03:29:11;;;;;;;8.48;4.28;;;;;;;13.72;99.17;101757.25;4896565;29;20474;-68
2022/07/23 03:31:37;;;;;;;7.30;5.07;;;;;;;13.68;99.40;101759.53;4896011;29;20024;-68
2022/07/23 03:34:02;;;;;;;7.47;4.97;;;;;;;13.67;99.61;101760.53;4896382;29;20487;-68
2022/07/23 03:36:27;;;;;;;9.25;4.50;;;;;;;13.63;99.69;101755.78;4896195;29;20033;-69
2022/07/23 03:38:53;;;;;;;6.93;4.00;;;;;;;13.62;99.35;101762.13;4896369;29;20039;-68
2022/07/23 03:41:19;;;;;;;6.45;4.45;;;;;;;13.59;99.05;101758.81;4895646;29;20064;-68
2022/07/23 03:43:45;;;;;;;9.13;4.93;;;;;;;13.60;99.23;101759.66;4895640;29;20028;-68
2022/07/23 03:46:10;;;;;;;9.60;4.35;;;;;;;13.59;99.83;101756.13;4895936;29;20043;-68
2022/07/23 03:48:36;;;;;;;8.13;4.75;;;;;;;13.63;99.92;101756.59;4895461;29;20032;-68
2022/07/23 03:51:02;;;;;;;8.20;5.30;;;;;;;13.58;99.70;101765.22;4895978;29;20036;-68
2022/07/23 03:53:27;;;;;;;8.05;4.72;;;;;;;13.48;99.98;101745.94;4896137;29;20559;-68
2022/07/23 03:55:52;;;;;;;6.93;4.63;;;;;;;13.52;100.00;101757.94;4879275;29;20040;-68
2022/07/23 03:58:18;;;;;;;8.82;4.88;;;;;;;13.56;100.00;101761.88;4895694;29;20392;-68
2022/07/23 04:00:43;;;;;;;9.45;4.63;;;;;;;13.58;100.00;101765.22;4895819;29;20144;-68
2022/07/23 04:03:08;;;;;;;9.85;5.18;;;;;;;13.59;100.00;101758.81;4878805;29;20036;-68
2022/07/23 04:05:34;;;;;;;8.02;5.00;;;;;;;13.65;100.00;101756.38;4895633;29;20025;-68
2022/07/23 04:07:59;;;;;;;7.97;4.68;;;;;;;13.68;100.00;101766.75;4895507;29;20131;-68
2022/07/23 04:10:25;;;;;;;8.68;5.20;;;;;;;13.68;100.00;101759.53;4895332;29;20044;-68
2022/07/23 04:12:50;;;;;;;10.73;5.10;;;;;;;13.63;100.00;101766.50;4895387;29;20036;-68
2022/07/23 04:15:15;;;;;;;10.00;5.50;;;;;;;13.55;100.00;101760.25;4895471;29;20033;-68
2022/07/23 04:17:41;;;;;;;9.48;5.18;;;;;;;13.59;100.00;101768.72;4895588;29;20044;-68
2022/07/23 04:20:06;;;;;;;7.88;4.72;;;;;;;13.56;100.00;101767.25;4878268;29;20036;-68
2022/07/23 04:22:32;;;;;;;8.50;5.53;;;;;;;13.54;100.00;101769.28;4895185;29;20062;-68
2022/07/23 04:24:57;;;;;;;10.00;4.88;;;;;;;13.53;100.00;101767.63;4895130;29;20120;-68
2022/07/23 04:27:23;;;;;;;10.57;5.20;;;;;;;13.55;100.00;101773.66;4895150;29;20488;-68
2022/07/23 04:29:48;;;;;;;7.63;4.88;;;;;;;13.54;99.97;101768.47;4895030;29;20032;-68
2022/07/23 04:32:13;;;;;;;7.65;5.40;;;;;;;13.51;99.94;101761.63;4895262;29;20033;-68
2022/07/23 04:34:39;;;;;;;9.75;5.30;;;;;;;13.58;100.00;101777.78;4895127;29;20043;-68
2022/07/23 04:37:04;;;;;;;13.10;5.30;;;;;;;13.66;100.00;101776.81;4895276;29;20060;-68
2022/07/23 04:39:30;;;;;;;9.93;5.22;;;;;;;13.69;100.00;101776.44;4895484;29;20101;-68
2022/07/23 04:41:55;;;;;;;12.27;5.57;;;;;;;13.68;99.75;101788.19;4894947;29;20029;-68
2022/07/23 04:44:21;;;;;;;10.13;5.13;;;;;;;13.70;99.74;101792.34;4877785;29;20549;-68
2022/07/23 04:46:46;;;;;;;10.07;5.68;;;;;;;13.73;99.54;101797.31;4894866;29;20506;-68
2022/07/23 04:49:11;;;;;;;9.80;6.22;;;;;;;13.77;99.70;101795.03;4894265;29;20488;-68
2022/07/23 04:51:37;;;;;;;10.63;5.55;;;;;;;13.80;99.48;101786.59;4894453;29;20429;-68
2022/07/23 04:54:02;;;;;;;8.93;5.45;;;;;;;13.91;99.39;101796.81;4894652;29;20681;-68
2022/07/23 04:56:28;;;;;;;10.95;5.78;;;;;;;14.01;99.30;101799.13;4893960;29;20151;-68
2022/07/23 04:58:53;;;;;;;10.40;5.10;;;;;;;14.05;99.47;101789.69;4894680;29;20118;-68
2022/07/23 05:01:18;;;;;;;12.15;5.90;;;;;;;14.16;98.81;101791.00;4877768;29;20047;-68
2022/07/23 05:03:44;;;;;;;9.82;6.13;;;;;;;14.35;98.23;101795.63;4894574;29;20040;-68
2022/07/23 05:06:09;;;;;;;10.15;5.47;;;;;;;14.45;97.79;101798.78;4894788;29;20028;-68
2022/07/23 05:08:34;;;;;;;9.90;5.57;;;;;;;14.54;97.83;101798.63;4894527;29;20036;-72
2022/07/23 05:11:00;;;;;;;9.93;4.70;;;;;;;14.58;97.32;101806.09;4894190;29;20067;-72
2022/07/23 05:13:25;;;;;;;10.60;4.90;;;;;;;14.62;97.26;101804.69;4893840;29;20076;-72
2022/07/23 05:15:51;;;;;;;10.82;5.40;;;;;;;14.82;97.15;101801.22;4894494;29;20044;-72
2022/07/23 05:18:16;;;;;;;12.00;6.40;;;;;;;15.16;95.84;101802.16;4894175;29;20032;-72
2022/07/23 05:20:42;;;;;;;18.50;6.50;;;;;;;15.41;94.29;101811.31;4894509;29;20040;-72
2022/07/23 05:23:07;;;;;;;10.82;5.50;;;;;;;15.47;93.55;101807.78;4894313;29;20040;-72
2022/07/23 05:25:33;;;;;;;8.02;5.40;;;;;;;15.32;93.67;101799.91;4894227;29;20496;-72
2022/07/23 05:27:58;;;;;;;11.13;6.13;;;;;;;15.30;94.29;101814.56;4894096;29;20066;-72
2022/07/23 05:30:23;;;;;;;10.00;6.20;;;;;;;15.21;94.50;101811.25;4894059;29;20052;-72
2022/07/23 05:32:49;;;;;;;10.18;5.50;;;;;;;15.24;94.91;101818.09;4877512;29;20051;-72
2022/07/23 05:35:14;;;;;;;12.35;6.20;;;;;;;15.24;94.74;101826.16;4894314;29;20040;-72
2022/07/23 05:37:40;;;;;;;13.48;6.60;;;;;;;15.25;94.77;101815.22;4894514;29;20128;-72
2022/07/23 05:40:08;;;;;;;12.63;6.97;;;;;;;15.37;94.51;101822.66;4894237;29;20533;-72
2022/07/23 05:42:35;;;;;;;11.15;6.38;;;;;;;15.43;94.46;101824.53;4894276;29;20119;-72
2022/07/23 05:45:00;;;;;;;12.13;6.07;;;;;;;15.45;94.35;101825.97;4894175;29;20029;-72
2022/07/23 05:47:26;;;;;;;12.70;6.00;;;;;;;15.48;94.76;101825.59;4893969;29;20107;-72
2022/07/23 05:49:51;;;;;;;11.05;6.43;;;;;;;15.52;95.00;101829.50;4893918;29;20053;-72
2022/07/23 05:52:17;;;;;;;11.27;6.38;;;;;;;15.56;95.37;101830.75;4893910;29;20059;-72
2022/07/23 05:54:42;;;;;;;10.73;5.65;;;;;;;15.69;95.06;101829.97;4893922;29;20033;-72
2022/07/23 05:57:07;;;;;;;11.05;6.47;;;;;;;15.76;94.22;101825.41;4893892;29;20037;-71
2022/07/23 05:59:33;;;;;;;11.23;6.25;;;;;;;15.81;94.02;101838.25;4893780;29;20036;-71
2022/07/23 06:01:58;;;;;;;11.40;6.93;;;;;;;15.80;93.03;101833.91;4893888;29;20107;-72
2022/07/23 06:04:23;;;;;;;13.63;5.93;;;;;;;15.83;93.78;101836.19;4893940;29;20060;-71
2022/07/23 06:06:49;;;;;;;10.95;6.60;;;;;;;15.87;94.01;101837.41;4895698;29;20508;-71
2022/07/23 06:09:14;;;;;;;11.38;6.30;;;;;;;15.92;92.85;101844.84;4897696;29;20166;-71
2022/07/23 06:11:40;;;;;;;10.45;6.05;;;;;;;16.03;92.73;101854.97;4897676;29;20484;-71
2022/07/23 06:14:06;;;;;;;12.70;6.43;;;;;;;16.08;91.75;101847.13;4897586;29;20044;-71
2022/07/23 06:16:31;;;;;;;10.10;6.28;;;;;;;16.10;92.05;101853.13;4897788;29;20032;-71
2022/07/23 06:18:56;;;;;;;10.40;6.93;;;;;;;16.13;92.15;101852.69;4897570;29;20037;-71
2022/07/23 06:21:22;;;;;;;9.70;6.15;;;;;;;16.20;92.97;101853.53;4881067;29;20036;-71
2022/07/23 06:23:47;;;;;;;10.88;6.53;;;;;;;16.34;92.44;101861.56;4897312;29;20060;-71
2022/07/23 06:26:12;;;;;;;11.85;7.75;;;;;;;16.42;91.51;101851.41;4880400;29;20044;-73
2022/07/23 06:28:38;;;;;;;15.07;7.13;;;;;;;16.43;90.74;101841.47;4897239;29;20206;-74
2022/07/23 06:31:03;;;;;;;12.77;7.75;;;;;;;16.46;90.69;101840.22;4879759;29;20091;-73
2022/07/23 06:33:28;;;;;;;11.38;6.63;;;;;;;16.47;91.44;101842.69;4880663;29;20040;-73
2022/07/23 06:35:54;;;;;;;15.32;8.48;;;;;;;16.46;91.68;101846.44;4897433;29;20036;-74
2022/07/23 06:38:19;;;;;;;12.68;6.38;;;;;;;16.44;91.45;101846.63;4897178;29;20043;-71
2022/07/23 06:40:44;;;;;;;13.90;6.55;;;;;;;16.48;91.12;101843.53;4897290;29;20068;-71
2022/07/23 06:43:10;;;;;;;10.73;6.55;;;;;;;16.54;90.36;101856.97;4897074;29;20052;-71
2022/07/23 06:45:36;;;;;;;10.55;5.82;;;;;;;16.60;89.94;101861.50;4896972;29;20123;-71
2022/07/23 06:48:02;;;;;;;13.15;7.00;;;;;;;16.67;90.54;101861.50;4880191;29;20048;-71
2022/07/23 06:50:28;;;;;;;12.48;6.47;;;;;;;16.73;88.88;101865.22;4897056;29;20116;-72
2022/07/23 06:52:53;;;;;;;11.38;6.25;;;;;;;16.74;88.78;101856.06;4897063;29;20489;-71
2022/07/23 06:55:19;;;;;;;8.95;4.35;;;;;;;16.85;86.89;101866.25;4896881;29;20047;-72
2022/07/23 06:57:44;;;;;;;12.20;5.93;;;;;;;16.77;86.43;101848.44;4896898;29;20392;-70
2022/07/23 07:00:10;;;;;;;9.95;5.75;;;;;;;16.84;87.75;101860.00;4864345;29;20036;-70
2022/07/23 07:02:36;;;;;;;10.77;6.28;;;;;;;16.74;85.75;101848.84;4896939;29;20047;-71
2022/07/23 07:05:02;;;;;;;8.57;5.35;;;;;;;16.82;86.72;101854.03;4879806;29;20396;-70
2022/07/23 07:07:27;;;;;;;11.95;6.40;;;;;;;16.83;85.88;101862.94;4896684;29;20044;-72
2022/07/23 07:09:53;;;;;;;13.13;5.80;;;;;;;16.86;86.21;101863.31;4896567;29;20066;-66
2022/07/23 07:12:18;;;;;;;9.63;5.63;;;;;;;16.86;86.80;101855.22;4896562;29;20131;-66
2022/07/23 07:14:43;;;;;;;9.13;5.18;;;;;;;16.91;86.73;101865.38;4879720;29;20052;-67
2022/07/23 07:17:10;;;;;;;11.40;6.38;;;;;;;17.07;87.09;101866.75;4896363;29;20050;-67
2022/07/23 07:19:36;;;;;;;10.30;5.43;;;;;;;17.10;85.10;101863.63;4896121;29;20475;-68
2022/07/23 07:22:01;;;;;;;9.63;5.85;;;;;;;17.19;85.12;101862.34;4896453;29;20028;-67
2022/07/23 07:24:26;;;;;;;11.98;5.20;;;;;;;17.26;85.05;101857.72;4896703;29;20382;-68
2022/07/23 07:26:52;;;;;;;8.65;4.20;;;;;;;17.30;84.40;101856.25;4896472;29;20041;-67
2022/07/23 07:29:17;;;;;;;9.30;4.60;;;;;;;17.38;82.66;101854.34;4896454;29;20076;-68
2022/07/23 07:31:43;;;;;;;8.82;4.05;;;;;;;17.46;82.96;101854.91;4896239;29;20032;-68
2022/07/23 07:34:08;;;;;;;8.05;4.30;;;;;;;17.46;80.32;101854.91;4896215;29;20044;-68
2022/07/23 07:36:35;;;;;;;5.97;3.80;;;;;;;17.47;80.21;101861.94;4896075;29;20116;-68
2022/07/23 07:39:01;;;;;;;6.40;3.10;;;;;;;17.54;80.50;101856.53;4896145;29;20055;-68
2022/07/23 07:41:26;;;;;;;5.93;2.88;;;;;;;17.63;81.04;101863.31;4896223;29;20354;-68
2022/07/23 07:43:52;;;;;;;5.88;3.30;;;;;;;17.70;79.97;101871.34;4896047;29;20032;-68
2022/07/23 07:46:17;;;;;;;6.78;2.88;;;;;;;17.71;77.80;101875.69;4896205;29;20056;-68
2022/07/23 07:48:42;;;;;;;6.22;3.40;;;;;;;17.78;77.55;101872.94;4895902;29;20037;-68
2022/07/23 07:51:08;;;;;;;5.47;3.22;;;;;;;17.74;76.30;101877.97;4896037;29;20120;-67
2022/07/23 07:53:33;;;;;;;7.57;3.15;;;;;;;17.77;76.52;101874.81;4895759;29;20112;-67
2022/07/23 07:55:59;;;;;;;8.32;3.88;;;;;;;17.86;75.95;101876.22;4895659;29;20076;-68
2022/07/23 07:58:24;;;;;;;7.05;3.63;;;;;;;17.94;75.94;101875.94;4895727;29;20503;-67
2022/07/23 08:00:51;;;;;;;6.28;3.28;;;;;;;18.02;76.29;101880.25;4895638;29;20461;-68
2022/07/23 08:03:16;;;;;;;5.85;3.38;;;;;;;18.08;76.21;101873.97;4895845;29;20381;-68
2022/07/23 08:05:42;;;;;;;8.68;3.95;;;;;;;18.14;75.00;101875.78;4895629;29;20097;-68
2022/07/23 08:08:09;;;;;;;5.97;3.17;;;;;;;18.22;75.18;101877.38;4895742;29;20036;-68
2022/07/23 08:10:35;;;;;;;6.65;3.35;;;;;;;18.35;76.55;101876.41;4895412;29;20569;-68
2022/07/23 08:13:01;;;;;;;6.38;3.75;;;;;;;18.38;75.05;101884.91;4887923;29;20056;-70
2022/07/23 08:15:28;;;;;;;6.47;3.30;;;;;;;18.52;74.68;101882.06;4895643;29;20550;-71
2022/07/23 08:17:55;;;;;;;8.50;4.38;;;;;;;19.74;70.28;101883.84;4895529;29;20071;-71
2022/07/23 08:20:23;;;;;;;5.72;3.75;;;;;;;21.98;62.15;101886.81;4895376;29;20024;-71
2022/07/23 08:23:18;;;;;;;7.28;3.67;;;;;;;24.30;61.20;101889.97;4895265;29;20044;-71
2022/07/23 08:25:44;;;;;;;4.68;3.10;;;;;;;25.99;50.30;101888.56;4893913;29;20091;-71
2022/07/23 08:28:11;;;;;;;8.40;4.22;;;;;;;27.00;46.46;101884.97;4895098;29;20128;-71
2022/07/23 08:30:38;;;;;;;6.93;3.33;;;;;;;27.84;44.91;101890.44;4894945;29;20068;-71
2022/07/23 08:33:11;;;;;;;6.50;3.15;;;;;;;28.47;42.39;101886.81;4895004;29;20123;-71
2022/07/23 08:35:50;;;;;;;5.93;3.05;;;;;;;29.21;46.12;101893.56;4895091;29;20075;-71
2022/07/23 08:38:17;;;;;;;5.28;2.70;;;;;;;29.82;40.33;101896.47;4894985;29;20059;-71
2022/07/23 08:40:46;;;;;;;4.30;2.95;;;;;;;30.10;38.61;101894.56;4894892;29;20028;-71
2022/07/23 08:43:15;;;;;;;4.97;3.22;;;;;;;30.33;37.98;101895.53;4894745;29;20032;-72
2022/07/23 08:45:42;;;;;;;3.95;2.65;;;;;;;30.67;37.96;101900.63;4894502;29;20035;-71
2022/07/23 08:48:11;;;;;;;3.05;2.75;;;;;;;30.79;36.67;101898.16;4894797;29;20087;-71
2022/07/23 08:50:37;;;;;;;4.53;3.17;;;;;;;30.84;35.26;101905.53;4894670;29;20066;-71
2022/07/23 08:53:05;;;;;;;5.22;3.20;;;;;;;30.94;35.40;101901.72;4894522;29;20157;-71
2022/07/23 08:55:31;;;;;;;5.88;2.63;;;;;;;30.83;34.55;101894.81;4894786;29;20040;-71
2022/07/23 08:57:56;;;;;;;4.72;2.58;;;;;;;30.87;36.51;101909.63;4894707;29;20040;-71
2022/07/23 09:00:22;;;;;;;5.38;2.72;;;;;;;30.58;35.90;101913.50;4894679;29;20068;-71
2022/07/23 09:02:49;;;;;;;3.40;2.55;;;;;;;29.92;35.97;101907.25;4894756;29;20044;-71
2022/07/23 09:05:15;;;;;;;3.38;2.17;;;;;;;28.88;36.74;101911.84;4894662;29;20388;-71
2022/07/23 09:08:07;;;;;;;3.50;2.00;;;;;;;27.50;41.97;101905.75;4894613;29;20476;-71
2022/07/23 09:10:57;;;;;;;3.38;2.50;;;;;;;26.13;45.41;101902.50;4894196;29;20045;-71
2022/07/23 09:13:23;;;;;;;9.70;2.80;;;;;;;25.16;44.47;101904.31;4894519;29;20484;-71
2022/07/23 09:15:50;;;;;;;8.80;3.70;;;;;;;24.35;48.10;101908.28;4894148;29;20070;-71
2022/07/23 09:18:16;;;;;;;4.75;2.80;;;;;;;23.89;50.08;101908.75;4894041;29;20020;-71
2022/07/23 09:20:41;;;;;;;5.28;2.30;;;;;;;23.54;50.22;101903.81;4894428;29;20024;-71
2022/07/23 09:23:07;;;;;;;4.25;2.40;;;;;;;23.18;50.97;101893.34;4894297;29;20064;-71
2022/07/23 09:25:32;;;;;;;6.55;2.70;;;;;;;23.04;52.46;101891.31;4894318;29;20064;-71
2022/07/23 09:28:02;;;;;;;6.38;3.08;;;;;;;22.80;55.08;101885.28;4894090;29;20069;-71
2022/07/23 09:30:30;;;;;;;4.80;2.45;;;;;;;22.66;54.08;101887.53;4877479;29;20056;-71
2022/07/23 09:33:13;;;;;;;4.38;2.80;;;;;;;22.59;54.06;101892.38;4894066;29;20028;-71
2022/07/23 09:35:49;;;;;;;4.00;2.30;;;;;;;22.62;53.98;101881.78;4894164;29;20589;-71
2022/07/23 09:38:16;;;;;;;3.50;2.17;;;;;;;22.62;53.77;101880.97;4894157;29;20591;-71
2022/07/23 09:40:41;;;;;;;4.68;2.38;;;;;;;22.65;54.45;101884.00;4893948;29;20089;-71
2022/07/23 09:43:07;;;;;;;4.35;3.00;;;;;;;22.45;53.28;101891.88;4894202;29;20033;-71
2022/07/23 09:45:32;;;;;;;3.35;2.75;;;;;;;22.27;53.32;101893.84;4894102;29;20040;-71
2022/07/23 09:48:15;;;;;;;4.50;3.42;;;;;;;22.19;54.39;101896.97;4893679;29;20029;-71
2022/07/23 09:50:42;;;;;;;5.75;3.22;;;;;;;22.04;57.82;101886.66;4894135;29;20429;-71
2022/07/23 09:53:08;;;;;;;5.88;2.60;;;;;;;21.75;53.76;101883.22;4877193;29;20040;-71
2022/07/23 09:55:38;;;;;;;5.45;3.30;;;;;;;21.77;54.80;101889.22;4893765;29;20493;-71
2022/07/23 09:58:12;;;;;;;5.53;3.38;;;;;;;21.81;54.47;101901.22;4893811;29;20071;-71
2022/07/23 10:00:38;;;;;;;5.85;2.92;;;;;;;21.79;58.21;101884.34;4894099;29;20137;-71
2022/07/23 10:03:06;;;;;;;6.28;3.17;;;;;;;21.79;54.86;101899.81;4894024;29;20508;-73
2022/07/23 10:05:34;;;;;;;6.40;3.30;;;;;;;21.80;55.17;101904.22;4893967;29;20038;-73
2022/07/23 10:08:02;;;;;;;7.03;3.65;;;;;;;21.91;54.81;101897.03;4893972;29;20943;-73
2022/07/23 10:10:29;;;;;;;4.55;3.10;;;;;;;22.16;56.84;101899.31;4893777;29;20128;-72
2022/07/23 10:15:41;;;;;;;5.72;3.42;;;;;;;22.28;56.69;101892.75;4894018;29;20100;-73
2022/07/23 10:18:06;;;;;;;8.65;4.00;;;;;;;22.21;55.69;101883.94;4893811;29;20440;-73
2022/07/23 10:20:32;;;;;;;6.47;3.70;;;;;;;22.32;57.59;101901.22;4876971;29;20037;-72
2022/07/23 10:23:03;;;;;;;6.65;3.17;;;;;;;22.28;56.07;101905.53;4893853;29;20136;-71
2022/07/23 10:26:20;;;;;;;6.97;3.80;;;;;;;22.26;55.98;101897.59;4893796;29;20033;-71
2022/07/23 10:29:12;;;;;;;4.50;2.58;;;;;;;22.07;54.76;101890.78;4842212;29;20523;-71
2022/07/23 10:32:16;;;;;;;4.88;3.05;;;;;;;22.03;56.16;101898.59;4893031;29;20028;-72
2022/07/23 10:34:51;;;;;;;4.60;2.78;;;;;;;22.02;56.15;101887.97;4876768;29;20040;-72
2022/07/23 10:37:41;;;;;;;7.97;2.90;;;;;;;22.23;55.70;101891.84;4887370;29;20033;-71
2022/07/23 10:40:17;;;;;;;4.72;3.10;;;;;;;22.44;55.52;101888.34;4893753;29;20032;-71
2022/07/23 10:42:43;;;;;;;7.88;3.10;;;;;;;22.47;54.82;101892.47;4893732;29;20029;-70
2022/07/23 10:45:28;;;;;;;3.60;2.58;;;;;;;22.65;56.60;101891.34;4893530;29;20476;-71
2022/07/23 10:47:55;;;;;;;6.93;3.28;;;;;;;22.83;55.99;101893.75;4893111;29;20207;-71
2022/07/23 10:50:27;;;;;;;8.32;3.33;;;;;;;22.78;51.90;101893.69;4893291;29;20092;-71
2022/07/23 10:53:08;;;;;;;7.53;3.17;;;;;;;22.67;54.27;101892.75;4893909;29;20123;-71
2022/07/23 10:55:33;;;;;;;5.18;3.58;;;;;;;22.56;54.82;101892.84;4896591;29;20025;-71
2022/07/23 10:57:59;;;;;;;6.60;3.60;;;;;;;22.59;57.77;101887.75;4897009;29;20037;-71
2022/07/23 11:00:26;;;;;;;8.20;4.90;;;;;;;22.68;54.48;101888.94;4896426;29;20585;-71
2022/07/23 11:02:54;;;;;;;5.05;2.65;;;;;;;22.38;53.68;101889.38;4896886;29;20079;-71
2022/07/23 11:05:21;;;;;;;6.13;3.50;;;;;;;22.17;56.32;101892.84;4896729;29;20070;-71
2022/07/23 11:08:10;;;;;;;5.75;3.58;;;;;;;22.40;58.01;101894.53;4896919;29;20472;-71
2022/07/23 11:10:43;;;;;;;7.28;4.03;;;;;;;22.60;55.34;101899.44;4896675;29;20079;-71
2022/07/23 11:13:24;;;;;;;7.28;4.20;;;;;;;22.86;56.86;101901.41;4896806;29;20041;-71
2022/07/23 11:16:02;;;;;;;7.40;4.15;;;;;;;23.08;54.83;101892.44;4896690;29;20147;-71
2022/07/23 11:18:39;;;;;;;5.85;3.28;;;;;;;23.17;52.69;101891.72;4896342;29;20135;-71
2022/07/23 11:23:56;;;;;;;5.53;3.22;;;;;;;23.48;52.38;101894.75;4896218;29;20048;-71
2022/07/23 11:26:43;;;;;;;6.20;3.60;;;;;;;23.44;53.69;101888.19;4896206;29;20025;-71
2022/07/23 11:29:33;;;;;;;10.60;4.53;;;;;;;23.50;53.52;101895.34;4896259;29;20073;-71